sensor_id;sensor_type;location;lat;lon;timestamp;pressure;altitude;pressure_sealevel;temperature;humidity
6349;BME280;3207;42.648;23.406;2023-03-01T00:02:21;100944.53;;;4.68;nan
6349;BME280;3207;42.648;23.406;2023-03-01T00:04:48;100929.91;;;4.67;nan
6349;BME280;3207;42.648;23.406;2023-03-01T00:07:15;100939.75;;;4.82;nan
6349;BME280;3207;42.648;23.406;2023-03-01T00:09:43;100941.41;;;4.85;nan
6349;BME280;3207;42.648;23.406;2023-03-01T00:12:11;100938.53;;;4.92;nan
6349;BME280;3207;42.648;23.406;2023-03-01T00:14:38;100932.56;;;4.90;nan
6349;BME280;3207;42.648;23.406;2023-03-01T00:17:05;100931.88;;;4.85;nan
6349;BME280;3207;42.648;23.406;2023-03-01T00:19:32;100943.63;;;4.95;nan
6349;BME280;3207;42.648;23.406;2023-03-01T00:21:58;100941.28;;;4.88;nan
6349;BME280;3207;42.648;23.406;2023-03-01T00:24:25;100952.94;;;4.76;nan
6349;BME280;3207;42.648;23.406;2023-03-01T00:26:54;100948.47;;;4.79;nan
6349;BME280;3207;42.648;23.406;2023-03-01T00:29:22;100930.56;;;4.73;nan
6349;BME280;3207;42.648;23.406;2023-03-01T00:31:49;100944.56;;;4.93;nan
6349;BME280;3207;42.648;23.406;2023-03-01T00:34:15;100942.69;;;4.98;nan
6349;BME280;3207;42.648;23.406;2023-03-01T00:36:42;100953.75;;;5.01;nan
6349;BME280;3207;42.648;23.406;2023-03-01T00:39:11;100957.94;;;5.05;nan
6349;BME280;3207;42.648;23.406;2023-03-01T00:41:39;100956.25;;;5.04;nan
6349;BME280;3207;42.648;23.406;2023-03-01T00:44:08;100951.97;;;5.03;nan
6349;BME280;3207;42.648;23.406;2023-03-01T00:46:35;100927.28;;;4.93;nan
6349;BME280;3207;42.648;23.406;2023-03-01T00:49:02;100929.66;;;4.99;nan
6349;BME280;3207;42.648;23.406;2023-03-01T00:51:30;100947.22;;;5.16;nan
6349;BME280;3207;42.648;23.406;2023-03-01T00:53:58;100938.63;;;5.14;nan
6349;BME280;3207;42.648;23.406;2023-03-01T00:56:25;100924.88;;;5.12;nan
6349;BME280;3207;42.648;23.406;2023-03-01T00:58:52;100929.22;;;5.11;nan
6349;BME280;3207;42.648;23.406;2023-03-01T01:01:23;100919.09;;;5.05;nan
6349;BME280;3207;42.648;23.406;2023-03-01T01:03:53;100905.34;;;5.03;nan
6349;BME280;3207;42.648;23.406;2023-03-01T01:06:23;100904.25;;;4.86;nan
6349;BME280;3207;42.648;23.406;2023-03-01T01:08:51;100906.97;;;4.81;nan
6349;BME280;3207;42.648;23.406;2023-03-01T01:11:19;100901.53;;;4.89;nan
6349;BME280;3207;42.648;23.406;2023-03-01T01:13:46;100908.91;;;4.99;nan
6349;BME280;3207;42.648;23.406;2023-03-01T01:16:14;100907.50;;;4.91;nan
6349;BME280;3207;42.648;23.406;2023-03-01T01:18:43;100903.75;;;4.99;nan
6349;BME280;3207;42.648;23.406;2023-03-01T01:21:11;100896.66;;;5.04;nan
6349;BME280;3207;42.648;23.406;2023-03-01T01:23:39;100879.75;;;4.94;nan
6349;BME280;3207;42.648;23.406;2023-03-01T01:26:08;100899.59;;;4.95;nan
6349;BME280;3207;42.648;23.406;2023-03-01T01:28:35;100888.47;;;4.92;nan
6349;BME280;3207;42.648;23.406;2023-03-01T01:31:02;100878.16;;;4.90;nan
6349;BME280;3207;42.648;23.406;2023-03-01T01:33:29;100873.81;;;4.91;nan
6349;BME280;3207;42.648;23.406;2023-03-01T01:35:57;100876.38;;;4.92;nan
6349;BME280;3207;42.648;23.406;2023-03-01T01:38:24;100868.38;;;4.98;nan
6349;BME280;3207;42.648;23.406;2023-03-01T01:40:51;100870.94;;;4.98;nan
6349;BME280;3207;42.648;23.406;2023-03-01T01:43:21;100861.56;;;4.96;nan
6349;BME280;3207;42.648;23.406;2023-03-01T01:45:49;100857.91;;;5.01;nan
6349;BME280;3207;42.648;23.406;2023-03-01T01:48:19;100854.50;;;4.99;nan
6349;BME280;3207;42.648;23.406;2023-03-01T01:50:50;100844.34;;;4.95;nan
6349;BME280;3207;42.648;23.406;2023-03-01T01:53:21;100843.41;;;4.72;nan
6349;BME280;3207;42.648;23.406;2023-03-01T01:55:52;100833.09;;;4.71;nan
6349;BME280;3207;42.648;23.406;2023-03-01T01:58:22;100859.09;;;4.93;nan
6349;BME280;3207;42.648;23.406;2023-03-01T02:00:51;100856.38;;;4.96;nan
6349;BME280;3207;42.648;23.406;2023-03-01T02:03:20;100836.56;;;4.95;nan
6349;BME280;3207;42.648;23.406;2023-03-01T02:05:52;100832.94;;;4.99;nan
6349;BME280;3207;42.648;23.406;2023-03-01T02:08:25;100845.91;;;4.99;nan
6349;BME280;3207;42.648;23.406;2023-03-01T02:10:54;100857.00;;;5.02;nan
6349;BME280;3207;42.648;23.406;2023-03-01T02:13:22;100845.69;;;5.05;nan
6349;BME280;3207;42.648;23.406;2023-03-01T02:15:49;100843.94;;;5.05;nan
6349;BME280;3207;42.648;23.406;2023-03-01T02:18:18;100845.63;;;5.06;nan
6349;BME280;3207;42.648;23.406;2023-03-01T02:20:55;100836.28;;;5.02;nan
6349;BME280;3207;42.648;23.406;2023-03-01T02:23:28;100835.63;;;4.97;nan
6349;BME280;3207;42.648;23.406;2023-03-01T02:25:59;100829.63;;;4.95;nan
6349;BME280;3207;42.648;23.406;2023-03-01T02:28:31;100829.50;;;4.98;nan
6349;BME280;3207;42.648;23.406;2023-03-01T02:30:58;100839.06;;;4.98;nan
6349;BME280;3207;42.648;23.406;2023-03-01T02:33:44;100840.84;;;4.96;nan
6349;BME280;3207;42.648;23.406;2023-03-01T02:36:15;100833.31;;;4.88;nan
6349;BME280;3207;42.648;23.406;2023-03-01T02:38:44;100838.50;;;4.88;nan
6349;BME280;3207;42.648;23.406;2023-03-01T02:41:13;100832.75;;;4.80;nan
6349;BME280;3207;42.648;23.406;2023-03-01T02:43:43;100822.34;;;4.82;nan
6349;BME280;3207;42.648;23.406;2023-03-01T02:46:15;100834.81;;;4.95;nan
6349;BME280;3207;42.648;23.406;2023-03-01T02:48:44;100803.31;;;4.83;nan
6349;BME280;3207;42.648;23.406;2023-03-01T02:51:22;100821.97;;;4.92;nan
6349;BME280;3207;42.648;23.406;2023-03-01T02:53:59;100829.63;;;4.95;nan
6349;BME280;3207;42.648;23.406;2023-03-01T02:56:31;100827.44;;;4.85;nan
6349;BME280;3207;42.648;23.406;2023-03-01T02:58:59;100831.47;;;4.92;nan
6349;BME280;3207;42.648;23.406;2023-03-01T03:01:27;100822.75;;;4.94;nan
6349;BME280;3207;42.648;23.406;2023-03-01T03:04:02;100812.91;;;4.81;nan
6349;BME280;3207;42.648;23.406;2023-03-01T03:06:29;100823.91;;;4.87;nan
6349;BME280;3207;42.648;23.406;2023-03-01T03:08:56;100822.13;;;4.88;nan
6349;BME280;3207;42.648;23.406;2023-03-01T03:11:23;100808.19;;;4.67;nan
6349;BME280;3207;42.648;23.406;2023-03-01T03:13:50;100824.72;;;4.64;nan
6349;BME280;3207;42.648;23.406;2023-03-01T03:16:18;100813.06;;;4.76;nan
6349;BME280;3207;42.648;23.406;2023-03-01T03:18:45;100828.72;;;4.73;nan
6349;BME280;3207;42.648;23.406;2023-03-01T03:21:13;100823.63;;;4.70;nan
6349;BME280;3207;42.648;23.406;2023-03-01T03:23:40;100818.03;;;4.57;nan
6349;BME280;3207;42.648;23.406;2023-03-01T03:26:07;100823.22;;;4.57;nan
6349;BME280;3207;42.648;23.406;2023-03-01T03:28:35;100831.81;;;4.58;nan
6349;BME280;3207;42.648;23.406;2023-03-01T03:31:06;100777.34;;;4.13;nan
6349;BME280;3207;42.648;23.406;2023-03-01T03:33:34;100817.63;;;4.45;nan
6349;BME280;3207;42.648;23.406;2023-03-01T03:36:02;100830.25;;;4.54;nan
6349;BME280;3207;42.648;23.406;2023-03-01T03:38:29;100820.91;;;4.50;nan
6349;BME280;3207;42.648;23.406;2023-03-01T03:41:00;100820.31;;;4.41;nan
6349;BME280;3207;42.648;23.406;2023-03-01T03:43:34;100821.31;;;4.37;nan
6349;BME280;3207;42.648;23.406;2023-03-01T03:46:02;100819.53;;;4.39;nan
6349;BME280;3207;42.648;23.406;2023-03-01T03:48:31;100813.66;;;4.34;nan
6349;BME280;3207;42.648;23.406;2023-03-01T03:50:59;100812.97;;;4.29;nan
6349;BME280;3207;42.648;23.406;2023-03-01T03:53:27;100793.88;;;4.07;nan
6349;BME280;3207;42.648;23.406;2023-03-01T03:55:55;100807.22;;;4.21;nan
6349;BME280;3207;42.648;23.406;2023-03-01T03:58:23;100801.06;;;4.24;nan
6349;BME280;3207;42.648;23.406;2023-03-01T04:00:52;100804.88;;;4.14;nan
6349;BME280;3207;42.648;23.406;2023-03-01T04:03:19;100804.69;;;4.20;nan
6349;BME280;3207;42.648;23.406;2023-03-01T04:05:47;100799.47;;;4.21;nan
6349;BME280;3207;42.648;23.406;2023-03-01T04:08:17;100808.75;;;4.27;nan
6349;BME280;3207;42.648;23.406;2023-03-01T04:10:47;100809.41;;;4.33;nan
6349;BME280;3207;42.648;23.406;2023-03-01T04:13:17;100811.06;;;4.34;nan
6349;BME280;3207;42.648;23.406;2023-03-01T04:15:45;100816.19;;;4.36;nan
6349;BME280;3207;42.648;23.406;2023-03-01T04:18:13;100818.78;;;4.36;nan
6349;BME280;3207;42.648;23.406;2023-03-01T04:20:43;100810.13;;;4.37;nan
6349;BME280;3207;42.648;23.406;2023-03-01T04:23:12;100808.13;;;4.20;nan
6349;BME280;3207;42.648;23.406;2023-03-01T04:25:47;100787.50;;;4.17;nan
6349;BME280;3207;42.648;23.406;2023-03-01T04:28:19;100806.84;;;4.32;nan
6349;BME280;3207;42.648;23.406;2023-03-01T04:30:45;100808.22;;;4.42;nan
6349;BME280;3207;42.648;23.406;2023-03-01T04:33:12;100797.22;;;4.35;nan
6349;BME280;3207;42.648;23.406;2023-03-01T04:35:39;100797.44;;;4.29;nan
6349;BME280;3207;42.648;23.406;2023-03-01T04:38:06;100800.84;;;4.31;nan
6349;BME280;3207;42.648;23.406;2023-03-01T04:40:33;100789.47;;;4.35;nan
6349;BME280;3207;42.648;23.406;2023-03-01T04:43:02;100804.31;;;4.55;nan
6349;BME280;3207;42.648;23.406;2023-03-01T04:45:29;100802.34;;;4.62;nan
6349;BME280;3207;42.648;23.406;2023-03-01T04:47:56;100803.94;;;4.66;nan
6349;BME280;3207;42.648;23.406;2023-03-01T04:50:23;100797.63;;;4.73;nan
6349;BME280;3207;42.648;23.406;2023-03-01T04:52:51;100805.34;;;4.74;nan
6349;BME280;3207;42.648;23.406;2023-03-01T04:55:18;100814.88;;;4.74;nan
6349;BME280;3207;42.648;23.406;2023-03-01T04:57:45;100806.44;;;4.67;nan
6349;BME280;3207;42.648;23.406;2023-03-01T05:00:15;100805.88;;;4.59;nan
6349;BME280;3207;42.648;23.406;2023-03-01T05:02:50;100802.13;;;4.68;nan
6349;BME280;3207;42.648;23.406;2023-03-01T05:05:26;100804.72;;;4.68;nan
6349;BME280;3207;42.648;23.406;2023-03-01T05:07:55;100780.69;;;4.64;nan
6349;BME280;3207;42.648;23.406;2023-03-01T05:10:22;100791.09;;;4.63;nan
6349;BME280;3207;42.648;23.406;2023-03-01T05:12:50;100789.31;;;4.65;nan
6349;BME280;3207;42.648;23.406;2023-03-01T05:15:30;100795.06;;;4.73;nan
6349;BME280;3207;42.648;23.406;2023-03-01T05:17:59;100796.03;;;4.69;nan
6349;BME280;3207;42.648;23.406;2023-03-01T05:20:26;100794.34;;;4.68;nan
6349;BME280;3207;42.648;23.406;2023-03-01T05:22:56;100798.25;;;4.79;nan
6349;BME280;3207;42.648;23.406;2023-03-01T05:25:24;100791.88;;;4.88;nan
6349;BME280;3207;42.648;23.406;2023-03-01T05:27:51;100792.63;;;4.92;nan
6349;BME280;3207;42.648;23.406;2023-03-01T05:30:18;100800.34;;;4.93;nan
6349;BME280;3207;42.648;23.406;2023-03-01T05:32:48;100802.03;;;4.71;nan
6349;BME280;3207;42.648;23.406;2023-03-01T05:35:21;100801.47;;;4.86;nan
6349;BME280;3207;42.648;23.406;2023-03-01T05:37:49;100803.72;;;4.95;nan
6349;BME280;3207;42.648;23.406;2023-03-01T05:40:18;100808.16;;;4.92;nan
6349;BME280;3207;42.648;23.406;2023-03-01T05:42:47;100812.59;;;4.88;nan
6349;BME280;3207;42.648;23.406;2023-03-01T05:45:15;100806.38;;;4.94;nan
6349;BME280;3207;42.648;23.406;2023-03-01T05:47:44;100803.94;;;4.89;nan
6349;BME280;3207;42.648;23.406;2023-03-01T05:50:14;100806.66;;;4.86;nan
6349;BME280;3207;42.648;23.406;2023-03-01T05:52:44;100804.38;;;4.77;nan
6349;BME280;3207;42.648;23.406;2023-03-01T05:55:11;100808.19;;;4.67;nan
6349;BME280;3207;42.648;23.406;2023-03-01T05:57:38;100803.94;;;4.66;nan
6349;BME280;3207;42.648;23.406;2023-03-01T06:00:06;100813.13;;;4.74;nan
6349;BME280;3207;42.648;23.406;2023-03-01T06:02:33;100819.34;;;4.69;nan
6349;BME280;3207;42.648;23.406;2023-03-01T06:05:00;100808.66;;;4.55;nan
6349;BME280;3207;42.648;23.406;2023-03-01T06:07:29;100826.50;;;4.62;nan
6349;BME280;3207;42.648;23.406;2023-03-01T06:09:56;100812.00;;;4.57;nan
6349;BME280;3207;42.648;23.406;2023-03-01T06:12:23;100797.50;;;4.53;nan
6349;BME280;3207;42.648;23.406;2023-03-01T06:14:49;100826.75;;;4.79;nan
6349;BME280;3207;42.648;23.406;2023-03-01T06:17:16;100819.19;;;4.73;nan
6349;BME280;3207;42.648;23.406;2023-03-01T06:19:43;100828.72;;;4.73;nan
6349;BME280;3207;42.648;23.406;2023-03-01T06:22:10;100830.72;;;4.65;nan
6349;BME280;3207;42.648;23.406;2023-03-01T06:24:38;100835.72;;;4.69;nan
6349;BME280;3207;42.648;23.406;2023-03-01T06:27:05;100834.84;;;4.70;nan
6349;BME280;3207;42.648;23.406;2023-03-01T06:29:32;100835.53;;;4.75;nan
6349;BME280;3207;42.648;23.406;2023-03-01T06:31:59;100841.84;;;4.67;nan
6349;BME280;3207;42.648;23.406;2023-03-01T06:34:25;100835.06;;;4.64;nan
6349;BME280;3207;42.648;23.406;2023-03-01T06:36:52;100835.06;;;4.64;nan
6349;BME280;3207;42.648;23.406;2023-03-01T06:39:19;100834.75;;;4.73;nan
6349;BME280;3207;42.648;23.406;2023-03-01T06:41:50;100828.91;;;4.67;nan
6349;BME280;3207;42.648;23.406;2023-03-01T06:44:17;100827.13;;;4.69;nan
6349;BME280;3207;42.648;23.406;2023-03-01T06:46:44;100828.06;;;4.66;nan
6349;BME280;3207;42.648;23.406;2023-03-01T06:49:10;100836.09;;;4.59;nan
6349;BME280;3207;42.648;23.406;2023-03-01T06:51:37;100836.59;;;4.70;nan
6349;BME280;3207;42.648;23.406;2023-03-01T06:54:04;100829.97;;;4.61;nan
6349;BME280;3207;42.648;23.406;2023-03-01T06:56:32;100832.53;;;4.63;nan
6349;BME280;3207;42.648;23.406;2023-03-01T06:59:00;100832.44;;;4.66;nan
6349;BME280;3207;42.648;23.406;2023-03-01T07:01:28;100811.81;;;4.63;nan
6349;BME280;3207;42.648;23.406;2023-03-01T07:03:55;100815.31;;;4.62;nan
6349;BME280;3207;42.648;23.406;2023-03-01T07:06:22;100817.66;;;4.68;nan
6349;BME280;3207;42.648;23.406;2023-03-01T07:08:49;100810.13;;;4.62;nan
6349;BME280;3207;42.648;23.406;2023-03-01T07:11:16;100812.19;;;4.52;nan
6349;BME280;3207;42.648;23.406;2023-03-01T07:13:43;100820.47;;;4.62;nan
6349;BME280;3207;42.648;23.406;2023-03-01T07:16:11;100807.63;;;4.59;nan
6349;BME280;3207;42.648;23.406;2023-03-01T07:18:39;100814.03;;;4.73;nan
6349;BME280;3207;42.648;23.406;2023-03-01T07:21:07;100796.28;;;4.63;nan
6349;BME280;3207;42.648;23.406;2023-03-01T07:23:34;100799.66;;;4.65;nan
6349;BME280;3207;42.648;23.406;2023-03-01T07:26:01;100786.91;;;4.59;nan
6349;BME280;3207;42.648;23.406;2023-03-01T07:28:28;100804.47;;;4.75;nan
6349;BME280;3207;42.648;23.406;2023-03-01T07:31:00;100800.75;;;4.83;nan
6349;BME280;3207;42.648;23.406;2023-03-01T07:33:29;100802.03;;;4.71;nan
6349;BME280;3207;42.648;23.406;2023-03-01T07:35:57;100785.13;;;4.61;nan
6349;BME280;3207;42.648;23.406;2023-03-01T07:38:24;100795.19;;;4.68;nan
6349;BME280;3207;42.648;23.406;2023-03-01T07:40:51;100792.22;;;4.79;nan
6349;BME280;3207;42.648;23.406;2023-03-01T07:43:18;100783.50;;;4.82;nan
6349;BME280;3207;42.648;23.406;2023-03-01T07:45:45;100784.06;;;4.90;nan
6349;BME280;3207;42.648;23.406;2023-03-01T07:48:12;100783.13;;;4.92;nan
6349;BME280;3207;42.648;23.406;2023-03-01T07:50:41;100787.84;;;4.81;nan
6349;BME280;3207;42.648;23.406;2023-03-01T07:53:08;100781.31;;;4.94;nan
6349;BME280;3207;42.648;23.406;2023-03-01T07:55:35;100753.78;;;4.92;nan
6349;BME280;3207;42.648;23.406;2023-03-01T07:58:02;100770.34;;;5.09;nan
6349;BME280;3207;42.648;23.406;2023-03-01T08:00:29;100769.50;;;5.09;nan
6349;BME280;3207;42.648;23.406;2023-03-01T08:02:58;100770.56;;;5.05;nan
6349;BME280;3207;42.648;23.406;2023-03-01T08:05:26;100773.53;;;5.18;nan
6349;BME280;3207;42.648;23.406;2023-03-01T08:07:54;100773.16;;;5.27;nan
6349;BME280;3207;42.648;23.406;2023-03-01T08:10:21;100773.47;;;5.19;nan
6349;BME280;3207;42.648;23.406;2023-03-01T08:12:54;100767.38;;;5.20;nan
6349;BME280;3207;42.648;23.406;2023-03-01T08:15:21;100765.50;;;5.24;nan
6349;BME280;3207;42.648;23.406;2023-03-01T08:17:48;100770.38;;;5.31;nan
6349;BME280;3207;42.648;23.406;2023-03-01T08:20:16;100759.06;;;5.34;nan
6349;BME280;3207;42.648;23.406;2023-03-01T08:22:43;100749.06;;;5.25;nan
6349;BME280;3207;42.648;23.406;2023-03-01T08:25:11;100742.16;;;5.02;nan
6349;BME280;3207;42.648;23.406;2023-03-01T08:27:37;100690.44;;;4.77;nan
6349;BME280;3207;42.648;23.406;2023-03-01T08:30:06;100738.38;;;5.10;nan
6349;BME280;3207;42.648;23.406;2023-03-01T08:32:36;100685.81;;;4.85;nan
6349;BME280;3207;42.648;23.406;2023-03-01T08:35:03;100730.47;;;5.13;nan
6349;BME280;3207;42.648;23.406;2023-03-01T08:37:30;100721.88;;;5.13;nan
6349;BME280;3207;42.648;23.406;2023-03-01T08:39:58;100724.16;;;5.21;nan
6349;BME280;3207;42.648;23.406;2023-03-01T08:42:26;100685.22;;;5.00;nan
6349;BME280;3207;42.648;23.406;2023-03-01T08:44:53;100731.34;;;5.36;nan
6349;BME280;3207;42.648;23.406;2023-03-01T08:47:20;100739.16;;;5.34;nan
6349;BME280;3207;42.648;23.406;2023-03-01T08:49:49;100749.22;;;5.42;nan
6349;BME280;3207;42.648;23.406;2023-03-01T08:52:16;100749.13;;;5.45;nan
6349;BME280;3207;42.648;23.406;2023-03-01T08:54:43;100761.81;;;5.51;nan
6349;BME280;3207;42.648;23.406;2023-03-01T08:57:10;100771.97;;;5.57;nan
6349;BME280;3207;42.648;23.406;2023-03-01T08:59:39;100787.31;;;5.62;nan
6349;BME280;3207;42.648;23.406;2023-03-01T09:02:12;100791.94;;;5.55;nan
6349;BME280;3207;42.648;23.406;2023-03-01T09:04:39;100772.19;;;5.51;nan
6349;BME280;3207;42.648;23.406;2023-03-01T09:07:06;100756.53;;;5.54;nan
6349;BME280;3207;42.648;23.406;2023-03-01T09:09:32;100753.09;;;5.53;nan
6349;BME280;3207;42.648;23.406;2023-03-01T09:12:00;100760.50;;;5.41;nan
6349;BME280;3207;42.648;23.406;2023-03-01T09:14:26;100745.19;;;5.35;nan
6349;BME280;3207;42.648;23.406;2023-03-01T09:16:55;100743.44;;;5.35;nan
6349;BME280;3207;42.648;23.406;2023-03-01T09:19:22;100739.66;;;5.44;nan
6349;BME280;3207;42.648;23.406;2023-03-01T09:21:49;100735.88;;;5.51;nan
6349;BME280;3207;42.648;23.406;2023-03-01T09:24:20;100732.91;;;5.40;nan
6349;BME280;3207;42.648;23.406;2023-03-01T09:26:47;100726.16;;;5.36;nan
6349;BME280;3207;42.648;23.406;2023-03-01T09:29:14;100733.94;;;5.36;nan
6349;BME280;3207;42.648;23.406;2023-03-01T09:31:42;100733.88;;;5.37;nan
6349;BME280;3207;42.648;23.406;2023-03-01T09:34:10;100726.56;;;5.47;nan
6349;BME280;3207;42.648;23.406;2023-03-01T09:36:39;100741.06;;;5.51;nan
6349;BME280;3207;42.648;23.406;2023-03-01T09:39:05;100744.59;;;5.50;nan
6349;BME280;3207;42.648;23.406;2023-03-01T09:41:45;100747.09;;;5.51;nan
6349;BME280;3207;42.648;23.406;2023-03-01T09:44:20;100747.94;;;5.52;nan
6349;BME280;3207;42.648;23.406;2023-03-01T09:46:48;100743.28;;;5.40;nan
6349;BME280;3207;42.648;23.406;2023-03-01T09:49:19;100737.06;;;5.44;nan
6349;BME280;3207;42.648;23.406;2023-03-01T09:51:57;100750.31;;;5.58;nan
6349;BME280;3207;42.648;23.406;2023-03-01T09:54:25;100723.97;;;5.25;nan
6349;BME280;3207;42.648;23.406;2023-03-01T09:57:00;100751.97;;;5.39;nan
6349;BME280;3207;42.648;23.406;2023-03-01T09:59:30;100733.63;;;5.22;nan
6349;BME280;3207;42.648;23.406;2023-03-01T10:02:04;100745.94;;;5.38;nan
6349;BME280;3207;42.648;23.406;2023-03-01T10:04:44;100737.00;;;5.24;nan
6349;BME280;3207;42.648;23.406;2023-03-01T10:07:21;100739.16;;;5.34;nan
6349;BME280;3207;42.648;23.406;2023-03-01T10:09:52;100733.25;;;5.31;nan
6349;BME280;3207;42.648;23.406;2023-03-01T10:12:22;100744.84;;;5.44;nan
6349;BME280;3207;42.648;23.406;2023-03-01T10:14:55;100741.44;;;5.42;nan
6349;BME280;3207;42.648;23.406;2023-03-01T10:17:28;100740.06;;;5.33;nan
6349;BME280;3207;42.648;23.406;2023-03-01T10:20:14;100751.06;;;5.40;nan
6349;BME280;3207;42.648;23.406;2023-03-01T10:22:42;100742.91;;;5.49;nan
6349;BME280;3207;42.648;23.406;2023-03-01T10:25:14;100747.84;;;5.55;nan
6349;BME280;3207;42.648;23.406;2023-03-01T10:27:52;100752.66;;;5.64;nan
6349;BME280;3207;42.648;23.406;2023-03-01T10:30:34;100749.16;;;5.65;nan
6349;BME280;3207;42.648;23.406;2023-03-01T10:33:03;100747.47;;;5.64;nan
6349;BME280;3207;42.648;23.406;2023-03-01T10:35:33;100740.53;;;5.65;nan
6349;BME280;3207;42.648;23.406;2023-03-01T10:38:06;100720.69;;;5.64;nan
6349;BME280;3207;42.648;23.406;2023-03-01T10:40:34;100729.97;;;5.69;nan
6349;BME280;3207;42.648;23.406;2023-03-01T10:43:03;100727.63;;;5.63;nan
6349;BME280;3207;42.648;23.406;2023-03-01T10:45:32;100728.41;;;5.65;nan
6349;BME280;3207;42.648;23.406;2023-03-01T10:48:11;100721.53;;;5.64;nan
6349;BME280;3207;42.648;23.406;2023-03-01T10:50:42;100717.63;;;5.54;nan
6349;BME280;3207;42.648;23.406;2023-03-01T10:53:21;100707.09;;;5.37;nan
6349;BME280;3207;42.648;23.406;2023-03-01T10:55:57;100716.59;;;5.58;nan
6349;BME280;3207;42.648;23.406;2023-03-01T10:58:25;100706.69;;;5.68;nan
6349;BME280;3207;42.648;23.406;2023-03-01T11:00:53;100706.19;;;5.80;nan
6349;BME280;3207;42.648;23.406;2023-03-01T11:03:23;100690.63;;;5.80;nan
6349;BME280;3207;42.648;23.406;2023-03-01T11:05:57;100694.19;;;5.77;nan
6349;BME280;3207;42.648;23.406;2023-03-01T11:08:36;100693.34;;;5.77;nan
6349;BME280;3207;42.648;23.406;2023-03-01T11:11:14;100666.94;;;5.67;nan
6349;BME280;3207;42.648;23.406;2023-03-01T11:14:03;100682.63;;;5.84;nan
6349;BME280;3207;42.648;23.406;2023-03-01T11:16:38;100675.63;;;5.86;nan
6349;BME280;3207;42.648;23.406;2023-03-01T11:19:19;100670.66;;;5.82;nan
6349;BME280;3207;42.648;23.406;2023-03-01T11:22:00;100675.00;;;5.81;nan
6349;BME280;3207;42.648;23.406;2023-03-01T11:24:37;100671.19;;;5.90;nan
6349;BME280;3207;42.648;23.406;2023-03-01T11:27:13;100654.38;;;5.78;nan
6349;BME280;3207;42.648;23.406;2023-03-01T11:29:45;100656.69;;;5.84;nan
6349;BME280;3207;42.648;23.406;2023-03-01T11:32:16;100661.19;;;5.81;nan
6349;BME280;3207;42.648;23.406;2023-03-01T11:34:47;100648.34;;;5.78;nan
6349;BME280;3207;42.648;23.406;2023-03-01T11:37:22;100653.59;;;5.76;nan
6349;BME280;3207;42.648;23.406;2023-03-01T11:39:58;100639.84;;;5.74;nan
6349;BME280;3207;42.648;23.406;2023-03-01T11:42:40;100640.63;;;5.76;nan
6349;BME280;3207;42.648;23.406;2023-03-01T11:45:11;100627.94;;;5.70;nan
6349;BME280;3207;42.648;23.406;2023-03-01T11:47:50;100629.75;;;5.68;nan
6349;BME280;3207;42.648;23.406;2023-03-01T11:50:28;100636.41;;;5.74;nan
6349;BME280;3207;42.648;23.406;2023-03-01T11:56:08;100618.84;;;5.80;nan
6349;BME280;3207;42.648;23.406;2023-03-01T11:59:06;100618.34;;;5.93;nan
6349;BME280;3207;42.648;23.406;2023-03-01T12:01:48;100617.50;;;5.92;nan
6349;BME280;3207;42.648;23.406;2023-03-01T12:07:36;100609.56;;;5.95;nan
6349;BME280;3207;42.648;23.406;2023-03-01T12:10:23;100614.97;;;5.91;nan
6349;BME280;3207;42.648;23.406;2023-03-01T12:13:15;100619.38;;;5.68;nan
6349;BME280;3207;42.648;23.406;2023-03-01T12:16:02;100609.84;;;5.69;nan
6349;BME280;3207;42.648;23.406;2023-03-01T12:21:30;100592.47;;;5.71;nan
6349;BME280;3207;42.648;23.406;2023-03-01T12:24:32;100604.31;;;5.76;nan
6349;BME280;3207;42.648;23.406;2023-03-01T12:27:37;100585.31;;;5.76;nan
6349;BME280;3207;42.648;23.406;2023-03-01T12:30:19;100593.31;;;5.92;nan
6349;BME280;3207;42.648;23.406;2023-03-01T12:32:58;100593.31;;;5.92;nan
6349;BME280;3207;42.648;23.406;2023-03-01T12:35:40;100581.34;;;5.87;nan
6349;BME280;3207;42.648;23.406;2023-03-01T12:38:22;100589.09;;;5.89;nan
6349;BME280;3207;42.648;23.406;2023-03-01T12:44:01;100571.66;;;5.93;nan
6349;BME280;3207;42.648;23.406;2023-03-01T12:46:49;100582.72;;;5.96;nan
6349;BME280;3207;42.648;23.406;2023-03-01T12:49:23;100577.09;;;6.05;nan
6349;BME280;3207;42.648;23.406;2023-03-01T12:51:54;100573.59;;;6.06;nan
6349;BME280;3207;42.648;23.406;2023-03-01T12:54:27;100558.75;;;6.10;nan
6349;BME280;3207;42.648;23.406;2023-03-01T12:56:56;100561.03;;;6.16;nan
6349;BME280;3207;42.648;23.406;2023-03-01T12:59:30;100555.50;;;6.05;nan
6349;BME280;3207;42.648;23.406;2023-03-01T13:02:04;100550.81;;;6.13;nan
6349;BME280;3207;42.648;23.406;2023-03-01T13:04:45;100551.03;;;6.08;nan
6349;BME280;3207;42.648;23.406;2023-03-01T13:07:25;100542.13;;;6.14;nan
6349;BME280;3207;42.648;23.406;2023-03-01T13:10:02;100536.00;;;6.15;nan
6349;BME280;3207;42.648;23.406;2023-03-01T13:12:50;100533.06;;;6.22;nan
6349;BME280;3207;42.648;23.406;2023-03-01T13:15:35;100534.47;;;6.11;nan
6349;BME280;3207;42.648;23.406;2023-03-01T13:18:11;100520.22;;;6.19;nan
6349;BME280;3207;42.648;23.406;2023-03-01T13:20:51;100526.63;;;6.12;nan
6349;BME280;3207;42.648;23.406;2023-03-01T13:23:30;100481.88;;;5.88;nan
6349;BME280;3207;42.648;23.406;2023-03-01T13:26:13;100520.38;;;6.16;nan
6349;BME280;3207;42.648;23.406;2023-03-01T13:28:54;100508.41;;;6.14;nan
6349;BME280;3207;42.648;23.406;2023-03-01T13:34:45;100497.22;;;6.12;nan
6349;BME280;3207;42.648;23.406;2023-03-01T13:37:20;100499.56;;;5.99;nan
6349;BME280;3207;42.648;23.406;2023-03-01T13:39:47;100496.69;;;5.85;nan
6349;BME280;3207;42.648;23.406;2023-03-01T13:42:41;100493.59;;;5.97;nan
6349;BME280;3207;42.648;23.406;2023-03-01T13:45:18;100488.31;;;5.99;nan
6349;BME280;3207;42.648;23.406;2023-03-01T13:47:47;100488.19;;;6.02;nan
6349;BME280;3207;42.648;23.406;2023-03-01T13:50:20;100487.41;;;6.00;nan
6349;BME280;3207;42.648;23.406;2023-03-01T13:52:51;100484.69;;;6.03;nan
6349;BME280;3207;42.648;23.406;2023-03-01T13:55:23;100476.75;;;6.06;nan
6349;BME280;3207;42.648;23.406;2023-03-01T13:57:51;100479.75;;;6.15;nan
6349;BME280;3207;42.648;23.406;2023-03-01T14:00:35;100477.72;;;6.22;nan
6349;BME280;3207;42.648;23.406;2023-03-01T14:03:11;100472.09;;;6.31;nan
6349;BME280;3207;42.648;23.406;2023-03-01T14:05:40;100473.53;;;6.37;nan
6349;BME280;3207;42.648;23.406;2023-03-01T14:08:23;100472.69;;;6.36;nan